Time;durP1;ratioP1;P1;durP2;ratioP2;P2;SDS_P1;SDS_P2;PMS_P1;PMS_P2;Temp;Humidity;BMP_temperature;BMP_pressure;BME280_temperature;BME280_humidity;BME280_pressure;Samples;Min_cycle;Max_cycle;Signal;HPM_P1;HPM_P2
2021/09/25 00:01:52;;;;;;;6.18;4.82;;;;;;;16.88;36.08;94096.34;5029069;28;20029;-76
2021/09/25 00:04:17;;;;;;;8.35;4.82;;;;;;;16.63;36.18;94091.13;5028605;28;20095;-77
2021/09/25 00:06:43;;;;;;;6.85;4.63;;;;;;;16.48;37.05;94093.78;5031165;28;20545;-76
2021/09/25 00:09:08;;;;;;;7.65;4.20;;;;;;;16.38;37.13;94103.09;5027803;28;20377;-77
2021/09/25 00:11:33;;;;;;;8.82;4.70;;;;;;;16.27;37.57;94113.53;5028598;28;20020;-76
2021/09/25 00:13:59;;;;;;;8.98;5.53;;;;;;;16.05;37.71;94100.63;5026931;28;20151;-77
2021/09/25 00:16:28;;;;;;;5.65;4.55;;;;;;;16.00;38.59;94119.63;5024394;28;20063;-77
2021/09/25 00:18:59;;;;;;;9.20;5.30;;;;;;;16.04;37.78;94123.22;5031362;28;20119;-77
2021/09/25 00:21:26;;;;;;;6.43;4.45;;;;;;;15.94;38.99;94115.63;5024879;28;20506;-77
2021/09/25 00:23:52;;;;;;;8.10;4.82;;;;;;;15.99;38.63;94120.75;5027314;28;20044;-76
2021/09/25 00:26:18;;;;;;;8.50;4.55;;;;;;;15.85;38.78;94117.66;5025715;28;20013;-77
2021/09/25 00:28:43;;;;;;;6.93;4.90;;;;;;;15.62;39.85;94117.38;5030114;28;20041;-76
2021/09/25 00:31:09;;;;;;;5.88;4.50;;;;;;;15.48;40.08;94103.53;5028415;28;20095;-77
2021/09/25 00:33:34;;;;;;;6.93;4.50;;;;;;;15.41;39.80;94105.94;5021766;28;20094;-77
2021/09/25 00:36:00;;;;;;;7.13;4.38;;;;;;;15.52;40.02;94109.00;5047996;28;20045;-76
2021/09/25 00:38:26;;;;;;;4.75;3.90;;;;;;;15.38;39.82;94106.63;5023261;28;20499;-77
2021/09/25 00:40:51;;;;;;;5.78;4.07;;;;;;;15.40;39.51;94102.50;5032497;28;20029;-76
2021/09/25 00:43:16;;;;;;;7.72;4.65;;;;;;;15.36;39.64;94085.53;5029161;28;20503;-77
2021/09/25 00:45:42;;;;;;;5.95;4.20;;;;;;;15.36;39.06;94077.50;5026030;28;20041;-77
2021/09/25 00:48:07;;;;;;;5.20;4.18;;;;;;;15.48;39.69;94100.06;5026319;28;20401;-78
2021/09/25 00:50:33;;;;;;;6.35;4.70;;;;;;;15.45;38.90;94088.09;5030787;28;20025;-76
2021/09/25 00:52:59;;;;;;;6.25;4.43;;;;;;;15.45;39.54;94098.84;5017400;28;20033;-76
2021/09/25 00:55:25;;;;;;;6.28;4.22;;;;;;;15.50;39.29;94101.28;5026806;28;20041;-77
2021/09/25 00:57:54;;;;;;;5.75;2.85;;;;;;;15.35;36.69;94078.59;5024004;28;20076;-77
2021/09/25 01:00:21;;;;;;;3.53;2.55;;;;;;;15.55;36.71;94098.38;5047215;28;20044;-75
2021/09/25 01:02:47;;;;;;;2.95;1.90;;;;;;;15.71;35.96;94109.19;5029895;28;20951;-76
2021/09/25 01:05:16;;;;;;;8.50;4.72;;;;;;;15.50;37.24;94087.13;5028641;28;20032;-77
2021/09/25 01:07:41;;;;;;;7.30;4.18;;;;;;;15.64;37.60;94092.91;5030797;28;20049;-77
2021/09/25 01:10:08;;;;;;;9.00;5.07;;;;;;;15.59;37.92;94109.22;5027561;28;20388;-77
2021/09/25 01:12:34;;;;;;;9.88;4.78;;;;;;;15.61;37.94;94106.97;5033206;28;20041;-77
2021/09/25 01:15:05;;;;;;;9.75;4.97;;;;;;;15.68;38.43;94108.00;5020548;28;20048;-76
2021/09/25 01:17:32;;;;;;;6.95;4.78;;;;;;;15.63;38.83;94094.81;5033334;28;20037;-78
2021/09/25 01:20:05;;;;;;;8.65;4.95;;;;;;;15.54;39.52;94123.66;5027514;28;20508;-76
2021/09/25 01:22:30;;;;;;;7.13;4.95;;;;;;;15.30;39.53;94086.84;5033186;28;20267;-77
2021/09/25 01:24:56;;;;;;;8.75;4.80;;;;;;;15.48;38.48;94102.75;5033756;28;20032;-77
2021/09/25 01:27:21;;;;;;;6.63;4.32;;;;;;;15.44;39.12;94113.38;5028388;28;20045;-77
2021/09/25 01:29:47;;;;;;;7.25;3.97;;;;;;;15.42;39.73;94113.66;5024169;28;20041;-77
2021/09/25 01:32:13;;;;;;;6.50;4.65;;;;;;;15.26;39.58;94118.13;5042324;28;20467;-77
2021/09/25 01:34:38;;;;;;;21.42;5.20;;;;;;;15.28;39.49;94118.59;5031023;28;20033;-76
2021/09/25 01:37:04;;;;;;;8.88;5.75;;;;;;;15.30;39.11;94113.66;5024558;28;20087;-76
2021/09/25 01:39:30;;;;;;;7.63;5.25;;;;;;;15.36;40.37;94116.91;5033480;28;20052;-76
2021/09/25 01:41:58;;;;;;;6.32;4.72;;;;;;;14.86;40.19;94077.81;5029510;28;20251;-76
2021/09/25 01:44:26;;;;;;;10.05;5.82;;;;;;;15.12;40.28;94119.56;5031118;28;20456;-77
2021/09/25 01:46:51;;;;;;;8.73;4.95;;;;;;;15.11;40.51;94136.78;5036806;28;20036;-76
2021/09/25 01:49:17;;;;;;;11.02;5.25;;;;;;;15.18;40.27;94121.72;5027736;28;20538;-77
2021/09/25 01:51:42;;;;;;;7.15;4.55;;;;;;;15.15;40.49;94143.81;5025989;28;20049;-76
2021/09/25 01:54:08;;;;;;;8.13;4.43;;;;;;;14.98;41.15;94150.13;5033261;28;20040;-76
2021/09/25 01:56:33;;;;;;;5.63;4.32;;;;;;;15.00;41.17;94131.06;5027202;28;20034;-76
2021/09/25 01:58:58;;;;;;;6.63;4.90;;;;;;;14.88;41.25;94128.34;5037077;28;20510;-76
2021/09/25 02:01:24;;;;;;;6.05;3.92;;;;;;;14.86;41.41;94130.59;5034577;28;20040;-75
2021/09/25 02:03:49;;;;;;;6.45;4.20;;;;;;;14.70;41.75;94124.31;5036613;28;20603;-77
2021/09/25 02:06:15;;;;;;;7.38;4.63;;;;;;;14.65;41.86;94129.88;5023499;28;20040;-78
2021/09/25 02:08:41;;;;;;;5.13;4.00;;;;;;;14.69;41.87;94150.28;5026995;28;20072;-77
2021/09/25 02:11:07;;;;;;;9.95;4.35;;;;;;;14.63;42.00;94148.13;5047054;28;20025;-78
2021/09/25 02:13:33;;;;;;;6.68;3.95;;;;;;;14.54;41.76;94130.28;5035867;28;20076;-76
2021/09/25 02:15:59;;;;;;;6.13;4.60;;;;;;;14.59;41.33;94138.09;5036838;28;20234;-76
2021/09/25 02:18:26;;;;;;;5.75;3.40;;;;;;;14.19;42.16;94102.25;5027181;28;20129;-76
2021/09/25 02:20:51;;;;;;;7.45;4.82;;;;;;;14.49;41.57;94148.41;5037152;28;20037;-77
2021/09/25 02:23:17;;;;;;;6.85;4.30;;;;;;;14.45;42.13;94142.94;5026415;28;20479;-77
2021/09/25 02:25:42;;;;;;;5.72;4.55;;;;;;;14.33;42.25;94148.22;5025635;28;20514;-77
2021/09/25 02:28:08;;;;;;;6.90;3.88;;;;;;;14.31;42.16;94145.09;5027810;28;20041;-77
2021/09/25 02:30:33;;;;;;;6.93;3.72;;;;;;;14.09;42.49;94121.38;5048561;28;20036;-77
2021/09/25 02:32:58;;;;;;;5.82;4.13;;;;;;;14.27;41.40;94146.09;5030528;28;20037;-77
2021/09/25 02:35:24;;;;;;;5.20;3.70;;;;;;;14.17;41.37;94136.56;5027191;28;20033;-77
2021/09/25 02:37:51;;;;;;;5.32;3.63;;;;;;;14.43;41.63;94145.16;5032244;28;20029;-75
2021/09/25 02:40:17;;;;;;;5.70;4.00;;;;;;;14.26;41.18;94129.25;5017428;28;20043;-74
2021/09/25 02:42:44;;;;;;;5.90;3.28;;;;;;;14.59;40.03;94148.03;5030818;28;20041;-76
2021/09/25 02:45:11;;;;;;;7.57;4.82;;;;;;;14.46;40.42;94133.81;5026156;28;20037;-76
2021/09/25 02:47:37;;;;;;;7.35;3.78;;;;;;;14.42;40.73;94145.50;5026175;28;20063;-77
2021/09/25 02:50:04;;;;;;;4.20;3.50;;;;;;;14.41;40.39;94152.75;5029472;28;20044;-77
2021/09/25 02:52:29;;;;;;;10.30;4.07;;;;;;;14.52;40.38;94169.94;5024284;28;20409;-75
2021/09/25 02:54:55;;;;;;;5.85;3.47;;;;;;;14.51;40.29;94168.38;5033899;28;20130;-77
2021/09/25 02:57:20;;;;;;;4.82;2.97;;;;;;;14.66;38.78;94158.22;5020288;28;20045;-77
2021/09/25 02:59:46;;;;;;;4.30;2.95;;;;;;;14.89;37.57;94159.38;5033393;28;20029;-77
2021/09/25 03:02:11;;;;;;;9.80;3.13;;;;;;;14.89;37.77;94152.13;5030609;28;20025;-77
2021/09/25 03:04:37;;;;;;;5.93;3.75;;;;;;;14.81;38.87;94162.94;5031477;28;20396;-77
2021/09/25 03:07:03;;;;;;;8.15;4.07;;;;;;;14.96;39.10;94179.13;5033888;28;20172;-77
2021/09/25 03:09:28;;;;;;;8.10;5.00;;;;;;;15.12;39.35;94198.03;5026757;28;20744;-77
2021/09/25 03:11:54;;;;;;;7.13;4.65;;;;;;;15.00;39.14;94173.94;5033413;28;20505;-76
2021/09/25 03:14:20;;;;;;;9.20;4.07;;;;;;;15.26;39.91;94193.16;5039095;28;20035;-77
2021/09/25 03:16:46;;;;;;;8.75;4.78;;;;;;;15.23;39.80;94193.81;5034818;28;20021;-76
2021/09/25 03:19:11;;;;;;;8.05;4.07;;;;;;;15.15;40.22;94194.72;5030024;28;20045;-77
2021/09/25 03:21:37;;;;;;;7.35;4.47;;;;;;;14.95;40.21;94171.47;5024791;28;20076;-77
2021/09/25 03:24:02;;;;;;;8.10;4.43;;;;;;;14.97;41.00;94201.34;5019881;28;20033;-77
2021/09/25 03:26:27;;;;;;;8.30;4.63;;;;;;;14.80;41.27;94177.44;5033644;28;20024;-76
2021/09/25 03:28:53;;;;;;;7.53;4.55;;;;;;;14.73;40.96;94212.78;5025955;28;20415;-77
2021/09/25 03:31:18;;;;;;;8.10;3.90;;;;;;;14.49;41.24;94197.38;5023443;28;20033;-77
2021/09/25 03:33:43;;;;;;;9.68;3.70;;;;;;;14.62;40.88;94224.22;5026581;28;21014;-77
2021/09/25 03:36:09;;;;;;;8.20;4.35;;;;;;;14.58;40.73;94208.81;5023436;28;20048;-76
2021/09/25 03:38:34;;;;;;;10.55;5.63;;;;;;;14.59;40.92;94226.44;5020046;28;20036;-77
2021/09/25 03:41:00;;;;;;;7.30;4.47;;;;;;;14.45;41.07;94220.53;5030881;28;20037;-76
2021/09/25 03:43:26;;;;;;;9.23;4.82;;;;;;;14.46;41.42;94224.78;5045072;28;20610;-77
2021/09/25 03:45:52;;;;;;;6.25;4.70;;;;;;;14.41;41.55;94222.31;5032496;28;20036;-77
2021/09/25 03:48:18;;;;;;;9.45;5.47;;;;;;;14.43;41.49;94208.59;5029915;28;20138;-78
2021/09/25 03:50:43;;;;;;;10.65;6.07;;;;;;;14.44;41.35;94220.88;5030007;28;20489;-77
2021/09/25 03:53:09;;;;;;;12.95;5.47;;;;;;;14.53;41.66;94230.41;5029867;28;20036;-77
2021/09/25 03:55:35;;;;;;;8.43;4.85;;;;;;;14.45;41.45;94231.25;5032331;28;20037;-77
2021/09/25 03:58:00;;;;;;;6.13;4.53;;;;;;;14.53;41.52;94225.06;5026084;28;20041;-76
2021/09/25 04:00:26;;;;;;;9.35;4.43;;;;;;;14.40;41.79;94218.06;5027009;28;20065;-77
2021/09/25 04:02:52;;;;;;;11.60;4.80;;;;;;;14.35;42.61;94228.97;5025296;28;20087;-77
2021/09/25 04:05:18;;;;;;;5.07;4.07;;;;;;;14.24;42.66;94217.06;5029423;28;20024;-77
2021/09/25 04:07:44;;;;;;;11.68;5.05;;;;;;;14.11;42.65;94218.13;5035473;28;20535;-77
2021/09/25 04:10:10;;;;;;;7.32;5.57;;;;;;;14.19;42.48;94242.13;5023323;28;20029;-77
2021/09/25 04:12:37;;;;;;;7.47;4.88;;;;;;;14.17;42.95;94238.22;5032380;28;20098;-77
2021/09/25 04:15:04;;;;;;;7.10;5.13;;;;;;;13.97;42.87;94222.94;5027755;28;20065;-78
2021/09/25 04:17:29;;;;;;;11.20;5.32;;;;;;;14.20;42.60;94248.25;5029450;28;20626;-76
2021/09/25 04:19:54;;;;;;;12.85;5.30;;;;;;;14.08;42.88;94250.88;5024792;28;21201;-76
2021/09/25 04:22:20;;;;;;;8.68;5.50;;;;;;;14.10;42.84;94259.34;5020640;28;20094;-76
2021/09/25 04:24:45;;;;;;;8.55;5.28;;;;;;;14.11;42.43;94245.66;5028165;28;20040;-76
2021/09/25 04:27:11;;;;;;;10.27;5.38;;;;;;;14.12;42.64;94279.31;5026936;28;20511;-76
2021/09/25 04:29:36;;;;;;;6.55;4.80;;;;;;;13.99;42.16;94252.78;5024598;28;20394;-78
2021/09/25 04:32:02;;;;;;;7.57;5.03;;;;;;;13.96;42.30;94256.13;5034941;28;20787;-76
2021/09/25 04:34:29;;;;;;;9.80;4.55;;;;;;;14.02;42.79;94268.22;5011174;28;20172;-76
2021/09/25 04:36:55;;;;;;;8.60;5.28;;;;;;;14.11;42.55;94280.41;5025052;28;20029;-77
2021/09/25 04:39:20;;;;;;;10.77;5.50;;;;;;;13.99;43.07;94279.53;5033085;28;20041;-76
2021/09/25 04:41:46;;;;;;;10.25;5.00;;;;;;;13.65;44.43;94286.59;5021282;28;20040;-77
2021/09/25 04:44:14;;;;;;;6.80;5.22;;;;;;;13.85;43.69;94297.69;5021718;28;20102;-76
2021/09/25 04:46:40;;;;;;;7.07;5.35;;;;;;;13.97;43.58;94282.53;5031714;28;20029;-77
2021/09/25 04:49:06;;;;;;;6.70;4.78;;;;;;;13.98;44.47;94291.34;5024353;28;20036;-77
2021/09/25 04:51:32;;;;;;;9.88;4.90;;;;;;;13.65;44.35;94235.03;5029927;28;20033;-77
2021/09/25 04:53:58;;;;;;;9.30;5.57;;;;;;;13.86;44.26;94281.34;5036044;28;20072;-77
2021/09/25 04:56:23;;;;;;;8.10;5.10;;;;;;;13.84;44.39;94290.78;5027904;28;20040;-77
2021/09/25 04:58:49;;;;;;;17.83;6.20;;;;;;;13.92;44.48;94300.66;5037910;28;20021;-77
2021/09/25 05:01:14;;;;;;;8.57;4.93;;;;;;;14.05;45.44;94294.28;5024797;28;20056;-76
2021/09/25 05:03:39;;;;;;;10.10;5.60;;;;;;;14.18;45.11;94293.25;5035268;28;20311;-77
2021/09/25 05:06:05;;;;;;;13.82;6.00;;;;;;;14.16;44.48;94285.59;5035684;28;20035;-78
2021/09/25 05:08:30;;;;;;;11.75;7.05;;;;;;;14.39;44.10;94291.41;5033706;28;20055;-77
2021/09/25 05:10:57;;;;;;;17.05;5.72;;;;;;;14.32;44.41;94282.34;5035054;28;20030;-78
2021/09/25 05:13:23;;;;;;;9.90;5.25;;;;;;;14.43;44.41;94292.31;5028895;28;20038;-77
2021/09/25 05:15:49;;;;;;;11.45;5.47;;;;;;;14.36;43.97;94281.38;5026633;28;20052;-77
2021/09/25 05:18:16;;;;;;;9.77;5.55;;;;;;;14.68;43.44;94297.84;5030559;28;20400;-77
2021/09/25 05:20:42;;;;;;;13.30;5.82;;;;;;;14.62;43.33;94296.50;5038307;28;20041;-77
2021/09/25 05:23:07;;;;;;;15.40;6.75;;;;;;;14.65;43.54;94323.41;5032017;28;20063;-76
2021/09/25 05:25:32;;;;;;;17.63;6.70;;;;;;;14.63;43.29;94319.47;5035530;28;20396;-76
2021/09/25 05:27:58;;;;;;;16.20;6.60;;;;;;;14.52;43.50;94303.00;5034200;28;20037;-77
2021/09/25 05:30:23;;;;;;;16.13;5.78;;;;;;;14.45;43.15;94308.84;5033146;28;20110;-77
2021/09/25 05:32:48;;;;;;;11.85;5.40;;;;;;;14.85;43.85;94311.91;5035044;28;20048;-76
2021/09/25 05:35:14;;;;;;;12.55;5.38;;;;;;;14.95;43.14;94327.56;5031144;28;20119;-77
2021/09/25 05:37:40;;;;;;;10.00;6.45;;;;;;;14.99;43.05;94322.34;5036537;28;20144;-77
2021/09/25 05:40:06;;;;;;;10.52;5.85;;;;;;;15.06;42.65;94332.53;5034261;28;20090;-76
2021/09/25 05:42:31;;;;;;;8.02;5.85;;;;;;;14.99;42.90;94330.38;5034346;28;20029;-77
2021/09/25 05:44:57;;;;;;;13.43;6.43;;;;;;;15.15;42.91;94336.72;5034186;28;20075;-76
2021/09/25 05:47:24;;;;;;;11.73;6.05;;;;;;;15.16;42.91;94342.81;5033808;28;20028;-76
2021/09/25 05:49:50;;;;;;;13.02;6.45;;;;;;;15.14;43.28;94337.03;5033014;28;20028;-77
2021/09/25 05:52:17;;;;;;;11.27;6.05;;;;;;;15.24;42.60;94344.66;5029313;28;20099;-77
2021/09/25 05:54:43;;;;;;;16.13;5.88;;;;;;;15.44;42.67;94351.91;5035600;28;20881;-76
2021/09/25 05:57:10;;;;;;;11.20;6.47;;;;;;;15.42;42.39;94340.69;5028877;28;20052;-77
2021/09/25 05:59:36;;;;;;;10.93;6.28;;;;;;;15.28;42.62;94314.19;5028326;28;20034;-77
2021/09/25 06:02:02;;;;;;;10.07;5.53;;;;;;;15.58;41.94;94368.50;5033879;28;20531;-77
2021/09/25 06:04:28;;;;;;;15.48;6.00;;;;;;;15.39;41.91;94363.59;5035415;28;20523;-78
2021/09/25 06:06:54;;;;;;;10.15;5.20;;;;;;;15.58;42.06;94391.84;5029205;28;20116;-77
2021/09/25 06:09:19;;;;;;;7.30;5.10;;;;;;;15.63;41.70;94370.19;5026638;28;20068;-77
2021/09/25 06:11:45;;;;;;;10.77;5.65;;;;;;;15.66;41.20;94389.06;5033614;28;20128;-76
2021/09/25 06:14:10;;;;;;;10.27;6.05;;;;;;;15.60;41.93;94362.78;5023343;28;20510;-77
2021/09/25 06:16:35;;;;;;;9.82;5.47;;;;;;;15.89;42.20;94398.28;5029897;28;20033;-77
2021/09/25 06:19:01;;;;;;;10.73;7.18;;;;;;;15.72;41.08;94379.69;5023196;28;20808;-76
2021/09/25 06:21:27;;;;;;;13.50;6.70;;;;;;;15.86;41.76;94380.19;5028302;28;20147;-78
2021/09/25 06:23:53;;;;;;;9.77;6.40;;;;;;;14.98;41.36;94251.91;5031706;28;21423;-76
2021/09/25 06:26:18;;;;;;;10.07;6.18;;;;;;;15.99;41.18;94380.22;5036650;28;20978;-76
2021/09/25 06:28:47;;;;;;;24.95;6.38;;;;;;;16.11;41.21;94382.91;5031981;28;20041;-77
2021/09/25 06:31:15;;;;;;;10.73;6.55;;;;;;;16.04;42.04;94393.38;5032333;28;20104;-76
2021/09/25 06:33:42;;;;;;;11.57;6.75;;;;;;;16.37;41.86;94402.22;5027553;28;20029;-76
2021/09/25 06:36:07;;;;;;;12.63;5.82;;;;;;;16.63;41.22;94383.84;5028282;28;20152;-77
2021/09/25 06:38:33;;;;;;;9.00;6.28;;;;;;;16.65;41.17;94391.56;5027510;28;20037;-78
2021/09/25 06:40:58;;;;;;;11.88;5.90;;;;;;;16.68;40.91;94370.19;5031525;28;20029;-78
2021/09/25 06:43:24;;;;;;;12.10;6.25;;;;;;;16.79;41.20;94375.88;5024223;28;20581;-77
2021/09/25 06:45:49;;;;;;;19.20;7.82;;;;;;;16.89;41.43;94396.91;5033028;28;20656;-77
2021/09/25 06:48:14;;;;;;;12.55;6.80;;;;;;;17.00;40.57;94381.91;5035662;28;20510;-77
2021/09/25 06:50:40;;;;;;;12.57;7.18;;;;;;;17.19;39.65;94373.25;5033318;28;20609;-76
2021/09/25 06:53:05;;;;;;;19.83;7.93;;;;;;;17.24;40.08;94381.06;5027453;28;20032;-76
2021/09/25 06:55:30;;;;;;;15.35;8.40;;;;;;;17.45;39.64;94387.03;5023938;28;20110;-77
2021/09/25 06:57:56;;;;;;;13.52;6.85;;;;;;;17.49;39.34;94397.91;5024918;28;20060;-76
2021/09/25 07:00:21;;;;;;;14.45;7.18;;;;;;;17.45;39.52;94378.22;5028999;28;20864;-77
2021/09/25 07:02:47;;;;;;;14.48;8.23;;;;;;;17.53;39.64;94388.03;5034014;28;20732;-76
2021/09/25 07:05:12;;;;;;;17.50;11.85;;;;;;;17.51;39.80;94377.59;5025317;28;20732;-76
2021/09/25 07:07:38;;;;;;;21.88;11.00;;;;;;;17.56;39.64;94380.03;5034790;28;20049;-76
2021/09/25 07:10:04;;;;;;;29.45;14.95;;;;;;;17.54;39.81;94384.22;5021802;28;20037;-76
2021/09/25 07:12:30;;;;;;;16.80;8.82;;;;;;;17.57;40.42;94378.91;5022355;28;20546;-76
2021/09/25 07:14:56;;;;;;;20.52;10.15;;;;;;;17.71;40.73;94383.91;5028075;28;20086;-76
2021/09/25 07:17:24;;;;;;;15.88;7.57;;;;;;;17.74;41.13;94363.59;5025354;28;20051;-76
2021/09/25 07:19:49;;;;;;;14.68;7.95;;;;;;;17.85;40.85;94370.03;5028940;28;20092;-76
2021/09/25 07:22:15;;;;;;;8.27;4.22;;;;;;;17.92;40.42;94384.47;5028213;28;20389;-76
2021/09/25 07:24:40;;;;;;;9.75;4.70;;;;;;;17.93;40.15;94375.31;5022852;28;20069;-76
2021/09/25 07:27:06;;;;;;;9.85;3.58;;;;;;;17.96;40.99;94377.28;5029855;28;20518;-76
2021/09/25 07:29:31;;;;;;;5.53;4.28;;;;;;;18.12;40.88;94392.69;5027035;28;20037;-77
2021/09/25 07:31:56;;;;;;;6.18;3.83;;;;;;;18.08;40.36;94384.53;5025880;28;20041;-75
2021/09/25 07:34:22;;;;;;;5.55;3.97;;;;;;;18.11;41.33;94372.25;5027027;28;20041;-76
2021/09/25 07:36:48;;;;;;;4.35;3.08;;;;;;;18.27;40.14;94368.47;5027100;28;20045;-77
2021/09/25 07:39:13;;;;;;;6.70;3.22;;;;;;;18.39;39.59;94389.09;5029949;28;20637;-76
2021/09/25 07:41:39;;;;;;;4.55;3.13;;;;;;;18.51;40.76;94394.41;5026648;28;20080;-76
2021/09/25 07:44:04;;;;;;;7.70;3.65;;;;;;;18.66;39.99;94392.84;5032912;28;20479;-76
2021/09/25 07:46:30;;;;;;;12.02;4.22;;;;;;;18.44;40.40;94373.47;5026781;28;20463;-76
2021/09/25 07:48:56;;;;;;;7.05;4.03;;;;;;;18.66;40.25;94384.75;5026663;28;20133;-76
2021/09/25 07:51:28;;;;;;;5.30;3.72;;;;;;;18.60;39.61;94397.72;5031490;28;20037;-75
2021/09/25 07:53:54;;;;;;;9.15;3.80;;;;;;;18.32;40.29;94370.09;5033723;28;20980;-75
2021/09/25 07:56:19;;;;;;;7.18;3.67;;;;;;;18.54;39.91;94396.41;5028981;28;20040;-76
2021/09/25 07:58:45;;;;;;;3.63;2.60;;;;;;;18.43;40.00;94384.63;5028739;28;20411;-75
2021/09/25 08:01:10;;;;;;;9.10;3.40;;;;;;;18.60;40.12;94403.09;5029558;28;20174;-76
2021/09/25 08:03:35;;;;;;;6.15;3.30;;;;;;;18.64;39.73;94397.78;5032835;28;20041;-77
2021/09/25 08:06:01;;;;;;;4.05;2.90;;;;;;;18.62;39.53;94389.28;5024617;28;20044;-76
2021/09/25 08:08:26;;;;;;;11.20;3.90;;;;;;;18.67;40.30;94397.88;5028529;28;20128;-76
2021/09/25 08:10:52;;;;;;;5.90;3.75;;;;;;;18.49;40.12;94358.97;5047213;28;20017;-76
2021/09/25 08:13:17;;;;;;;5.97;3.25;;;;;;;18.67;39.80;94387.09;5045438;28;20091;-77
2021/09/25 08:15:43;;;;;;;9.80;4.22;;;;;;;18.62;39.60;94379.28;5034754;28;20040;-77
2021/09/25 08:18:08;;;;;;;3.40;2.90;;;;;;;18.67;39.66;94397.09;5029037;28;20432;-77
2021/09/25 08:20:34;;;;;;;6.40;3.08;;;;;;;18.79;39.32;94400.50;5019830;28;20126;-76
2021/09/25 08:23:00;;;;;;;8.55;5.88;;;;;;;18.81;40.43;94383.97;5028938;28;20099;-76
2021/09/25 08:25:25;;;;;;;14.32;8.95;;;;;;;18.85;39.87;94399.09;5029437;28;20128;-76
2021/09/25 08:27:51;;;;;;;8.50;5.60;;;;;;;18.92;39.63;94398.44;5019177;28;20304;-77
2021/09/25 08:30:19;;;;;;;9.48;5.88;;;;;;;18.92;39.35;94381.53;5026879;28;20040;-77
2021/09/25 08:32:44;;;;;;;30.02;15.55;;;;;;;19.07;39.66;94389.53;5048306;28;20045;-77
2021/09/25 08:35:10;;;;;;;33.30;15.65;;;;;;;19.09;39.81;94381.13;5030055;28;20033;-77
2021/09/25 08:37:37;;;;;;;12.48;6.55;;;;;;;19.21;39.32;94389.84;5028273;28;20094;-77
2021/09/25 08:40:06;;;;;;;5.53;3.10;;;;;;;19.17;39.08;94374.72;5031670;28;20033;-78
2021/09/25 08:42:31;;;;;;;26.88;13.55;;;;;;;19.18;38.80;94368.22;5029513;28;20065;-77
2021/09/25 08:44:57;;;;;;;5.97;3.75;;;;;;;19.39;39.43;94384.06;5030625;28;20136;-77
2021/09/25 08:47:22;;;;;;;7.25;3.55;;;;;;;19.44;38.52;94376.47;5027713;28;20686;-76
2021/09/25 08:49:48;;;;;;;8.10;3.97;;;;;;;19.50;39.21;94369.69;5033388;28;20097;-77
2021/09/25 08:52:14;;;;;;;7.88;3.40;;;;;;;19.64;38.33;94391.53;5028582;28;20661;-78
2021/09/25 08:54:40;;;;;;;6.88;2.70;;;;;;;19.56;37.64;94389.81;5028423;28;20612;-77
2021/09/25 08:57:06;;;;;;;4.70;3.35;;;;;;;19.57;38.46;94391.38;5029322;28;20051;-77
2021/09/25 08:59:32;;;;;;;4.65;3.28;;;;;;;19.46;37.88;94366.09;5026923;28;20617;-77
2021/09/25 09:02:17;;;;;;;4.22;2.85;;;;;;;19.66;38.45;94394.66;5027075;28;20420;-77
2021/09/25 09:04:50;;;;;;;;;;;;;;;19.85;38.36;94388.44;5029645;28;20042;-76
2021/09/25 09:07:22;;;;;;;5.10;3.38;;;;;;;19.81;38.56;94367.94;5039596;28;19921;-77
2021/09/25 09:09:48;;;;;;;6.32;3.58;;;;;;;19.94;38.61;94382.84;5024539;28;20102;-77
2021/09/25 09:12:21;;;;;;;6.78;3.83;;;;;;;19.89;38.19;94383.13;5025019;28;21481;-78
2021/09/25 09:14:50;;;;;;;7.70;3.95;;;;;;;19.82;38.35;94364.09;5028466;28;20133;-78
2021/09/25 09:17:30;;;;;;;5.78;3.67;;;;;;;20.08;38.31;94377.69;5027188;28;20021;-77
2021/09/25 09:19:56;;;;;;;5.72;3.05;;;;;;;20.16;37.46;94384.75;5020565;28;20037;-78
2021/09/25 09:22:24;;;;;;;8.48;3.92;;;;;;;20.16;37.25;94385.56;5027964;28;20071;-77
2021/09/25 09:24:52;;;;;;;5.45;3.88;;;;;;;20.19;36.88;94373.25;5025701;28;20583;-78
2021/09/25 09:27:25;;;;;;;15.38;3.88;;;;;;;20.15;36.43;94383.19;5026587;28;20498;-77
2021/09/25 09:30:07;;;;;;;6.63;3.80;;;;;;;20.01;37.32;94385.66;5027918;28;20049;-77
2021/09/25 09:32:38;;;;;;;4.70;3.53;;;;;;;20.01;38.00;94383.72;5025833;28;20521;-77
2021/09/25 09:35:16;;;;;;;6.53;3.60;;;;;;;20.08;37.74;94393.88;5026582;28;20033;-77
2021/09/25 09:37:45;;;;;;;8.98;4.05;;;;;;;20.13;37.72;94385.50;5026563;28;20549;-77
2021/09/25 09:40:10;;;;;;;5.75;3.50;;;;;;;20.33;37.40;94383.53;5023478;28;20506;-79
2021/09/25 09:42:46;;;;;;;8.45;3.67;;;;;;;20.54;36.77;94384.66;5027198;28;20171;-77
2021/09/25 09:45:12;;;;;;;5.63;3.85;;;;;;;20.56;36.49;94368.88;5027331;28;20190;-79
2021/09/25 09:47:46;;;;;;;8.85;3.20;;;;;;;20.71;37.00;94383.38;5026141;28;20518;-77
2021/09/25 09:50:13;;;;;;;6.22;3.63;;;;;;;20.59;36.71;94381.66;5030135;28;20098;-77
2021/09/25 09:52:39;;;;;;;4.93;3.92;;;;;;;20.59;36.74;94391.69;5044890;28;20044;-77
2021/09/25 09:55:09;;;;;;;5.53;3.50;;;;;;;20.48;36.85;94375.28;5027864;28;20371;-78
2021/09/25 09:57:35;;;;;;;9.60;4.03;;;;;;;20.75;37.90;94405.06;5026978;28;20460;-76
2021/09/25 10:00:01;;;;;;;7.47;4.07;;;;;;;20.88;36.02;94398.31;5008708;28;20172;-77
2021/09/25 10:02:27;;;;;;;5.40;3.70;;;;;;;20.97;36.64;94396.16;5022991;28;20051;-77
2021/09/25 10:04:52;;;;;;;10.25;4.13;;;;;;;21.03;36.46;94397.38;5029294;28;20059;-77
2021/09/25 10:07:18;;;;;;;7.97;3.75;;;;;;;21.16;35.79;94387.94;5030007;28;20929;-77
2021/09/25 10:09:44;;;;;;;5.57;3.47;;;;;;;21.20;36.40;94388.75;5028676;28;20379;-77
2021/09/25 10:12:15;;;;;;;6.47;3.30;;;;;;;21.18;36.24;94385.63;5031087;28;20125;-77
2021/09/25 10:14:48;;;;;;;6.93;3.90;;;;;;;21.17;35.85;94372.47;5030428;28;20405;-78
2021/09/25 10:17:16;;;;;;;5.53;3.70;;;;;;;21.13;36.31;94358.88;5020144;28;20057;-76
2021/09/25 10:19:44;;;;;;;10.82;6.72;;;;;;;21.40;35.57;94384.75;5027959;28;20528;-76
2021/09/25 10:22:18;;;;;;;7.80;3.78;;;;;;;21.44;35.77;94371.28;5030269;28;20041;-78
2021/09/25 10:24:54;;;;;;;6.63;3.87;;;;;;;21.58;34.81;94384.22;5043599;28;20373;-77
2021/09/25 10:27:21;;;;;;;6.85;3.72;;;;;;;21.52;36.25;94382.94;5031470;28;20044;-77
2021/09/25 10:29:53;;;;;;;4.75;3.85;;;;;;;21.57;35.64;94369.13;5024673;28;20040;-76
2021/09/25 10:32:48;;;;;;;14.02;7.45;;;;;;;21.68;36.02;94375.44;5004564;28;20463;-77
2021/09/25 10:35:17;;;;;;;10.30;6.03;;;;;;;21.74;34.86;94369.34;5001209;28;20049;-76
2021/09/25 10:37:52;;;;;;;8.45;5.25;;;;;;;21.78;35.12;94361.25;5012571;28;20029;-78
2021/09/25 10:40:19;;;;;;;;;;;;;;;21.81;35.81;94363.19;5004037;28;20037;-78
2021/09/25 10:42:59;;;;;;;5.75;3.60;;;;;;;21.62;34.69;94366.88;5021310;28;21383;-78
2021/09/25 10:45:33;;;;;;;7.13;4.25;;;;;;;21.63;36.56;94362.22;5023149;28;20542;-77
2021/09/25 10:48:24;;;;;;;5.05;3.38;;;;;;;21.83;35.91;94360.91;5036965;28;20400;-78
2021/09/25 10:50:58;;;;;;;6.28;3.15;;;;;;;21.93;35.41;94362.19;5019235;28;20048;-78
2021/09/25 10:53:32;;;;;;;4.32;3.40;;;;;;;21.91;36.41;94367.16;5025696;28;20037;-77
2021/09/25 10:56:02;;;;;;;4.10;3.67;;;;;;;21.63;35.19;94337.88;5022681;28;20041;-77
2021/09/25 10:58:33;;;;;;;4.03;3.10;;;;;;;21.76;35.19;94355.41;5028660;28;20233;-78
2021/09/25 11:01:02;;;;;;;3.72;3.25;;;;;;;21.87;34.69;94362.50;5023019;28;20037;-79
2021/09/25 11:03:43;;;;;;;6.18;2.97;;;;;;;21.86;34.95;94343.91;5026394;28;20540;-78
2021/09/25 11:06:28;;;;;;;5.47;3.35;;;;;;;21.93;34.74;94354.84;5024870;28;20080;-77
2021/09/25 11:08:53;;;;;;;7.15;2.90;;;;;;;21.94;36.09;94345.56;5032638;28;20510;-77
2021/09/25 11:11:41;;;;;;;4.18;2.22;;;;;;;21.92;36.06;94328.13;5025778;28;20036;-77
2021/09/25 11:14:11;;;;;;;5.93;3.53;;;;;;;22.06;35.22;94345.28;5021436;28;20073;-77
2021/09/25 11:17:02;;;;;;;4.05;2.97;;;;;;;21.98;34.81;94349.09;5030794;28;20048;-78
2021/09/25 11:19:31;;;;;;;3.92;2.90;;;;;;;21.87;35.48;94350.91;5027207;28;20088;-78
2021/09/25 11:22:13;;;;;;;2.90;2.40;;;;;;;21.91;34.92;94346.28;5027992;28;20055;-78
2021/09/25 11:24:40;;;;;;;5.57;2.50;;;;;;;22.03;35.07;94351.44;5025740;28;20948;-78
2021/09/25 11:27:19;;;;;;;5.15;2.85;;;;;;;22.11;34.20;94338.75;5032832;28;20128;-79
2021/09/25 11:30:14;;;;;;;4.80;2.75;;;;;;;22.12;35.08;94338.38;5031720;28;20103;-79
2021/09/25 11:32:42;;;;;;;4.38;3.00;;;;;;;22.26;34.18;94345.88;5026701;28;20065;-77